sensor_id;sensor_type;location;lat;lon;timestamp;temperature;humidity
14934;DHT22;7560;51.364;12.384;2022-10-16T00:03:00;15.60;99.90
14934;DHT22;7560;51.364;12.384;2022-10-16T00:08:02;15.50;99.90
14934;DHT22;7560;51.364;12.384;2022-10-16T00:13:04;15.50;99.90
14934;DHT22;7560;51.364;12.384;2022-10-16T00:18:06;15.40;99.90
14934;DHT22;7560;51.364;12.384;2022-10-16T00:23:07;15.30;99.90
14934;DHT22;7560;51.364;12.384;2022-10-16T00:28:09;15.20;99.90
14934;DHT22;7560;51.364;12.384;2022-10-16T00:33:11;15.50;99.90
14934;DHT22;7560;51.364;12.384;2022-10-16T00:38:12;15.70;99.90
14934;DHT22;7560;51.364;12.384;2022-10-16T00:48:34;16.10;99.90
14934;DHT22;7560;51.364;12.384;2022-10-16T00:53:36;16.00;99.90
14934;DHT22;7560;51.364;12.384;2022-10-16T00:58:38;15.90;99.90
14934;DHT22;7560;51.364;12.384;2022-10-16T01:03:40;15.80;99.90
14934;DHT22;7560;51.364;12.384;2022-10-16T01:14:15;15.70;99.90
14934;DHT22;7560;51.364;12.384;2022-10-16T01:24:48;15.70;99.90
14934;DHT22;7560;51.364;12.384;2022-10-16T01:30:04;15.60;99.90
14934;DHT22;7560;51.364;12.384;2022-10-16T01:35:12;15.60;99.90
14934;DHT22;7560;51.364;12.384;2022-10-16T01:40:17;15.50;99.90
14934;DHT22;7560;51.364;12.384;2022-10-16T01:45:21;15.40;99.90
14934;DHT22;7560;51.364;12.384;2022-10-16T01:50:24;15.40;99.90
14934;DHT22;7560;51.364;12.384;2022-10-16T01:55:32;15.40;99.90
14934;DHT22;7560;51.364;12.384;2022-10-16T02:00:38;15.30;99.90
14934;DHT22;7560;51.364;12.384;2022-10-16T02:10:49;15.20;99.90
14934;DHT22;7560;51.364;12.384;2022-10-16T02:15:51;15.10;99.90
14934;DHT22;7560;51.364;12.384;2022-10-16T02:21:07;15.20;99.90
14934;DHT22;7560;51.364;12.384;2022-10-16T02:26:15;15.30;99.90
14934;DHT22;7560;51.364;12.384;2022-10-16T02:31:23;15.30;99.90
14934;DHT22;7560;51.364;12.384;2022-10-16T02:36:27;15.20;99.90
14934;DHT22;7560;51.364;12.384;2022-10-16T02:41:28;15.10;99.90
14934;DHT22;7560;51.364;12.384;2022-10-16T02:46:30;15.10;99.90
14934;DHT22;7560;51.364;12.384;2022-10-16T02:51:32;15.10;99.90
14934;DHT22;7560;51.364;12.384;2022-10-16T02:56:34;14.90;99.90
14934;DHT22;7560;51.364;12.384;2022-10-16T03:01:35;14.90;99.90
14934;DHT22;7560;51.364;12.384;2022-10-16T03:06:37;14.80;99.90
14934;DHT22;7560;51.364;12.384;2022-10-16T03:11:39;14.90;99.90
14934;DHT22;7560;51.364;12.384;2022-10-16T03:16:40;14.90;99.90
14934;DHT22;7560;51.364;12.384;2022-10-16T03:21:42;14.80;99.90
14934;DHT22;7560;51.364;12.384;2022-10-16T03:26:44;14.90;99.90
14934;DHT22;7560;51.364;12.384;2022-10-16T03:31:46;14.90;99.90
14934;DHT22;7560;51.364;12.384;2022-10-16T03:36:49;14.90;99.90
14934;DHT22;7560;51.364;12.384;2022-10-16T03:41:51;14.90;99.90
14934;DHT22;7560;51.364;12.384;2022-10-16T03:46:53;14.90;99.90
14934;DHT22;7560;51.364;12.384;2022-10-16T03:51:54;15.00;99.90
14934;DHT22;7560;51.364;12.384;2022-10-16T03:56:56;15.00;99.90
14934;DHT22;7560;51.364;12.384;2022-10-16T04:01:58;15.10;99.90
14934;DHT22;7560;51.364;12.384;2022-10-16T04:06:59;15.10;99.90
14934;DHT22;7560;51.364;12.384;2022-10-16T04:12:01;15.10;99.90
14934;DHT22;7560;51.364;12.384;2022-10-16T04:17:03;15.10;99.90
14934;DHT22;7560;51.364;12.384;2022-10-16T04:22:04;15.10;99.90
14934;DHT22;7560;51.364;12.384;2022-10-16T04:27:06;15.00;99.90
14934;DHT22;7560;51.364;12.384;2022-10-16T04:32:09;15.00;99.90
14934;DHT22;7560;51.364;12.384;2022-10-16T04:37:10;14.90;99.90
14934;DHT22;7560;51.364;12.384;2022-10-16T04:42:12;14.80;99.90
14934;DHT22;7560;51.364;12.384;2022-10-16T04:47:14;14.90;99.90
14934;DHT22;7560;51.364;12.384;2022-10-16T04:52:15;14.90;99.90
14934;DHT22;7560;51.364;12.384;2022-10-16T04:57:17;14.90;99.90
14934;DHT22;7560;51.364;12.384;2022-10-16T05:02:19;15.00;99.90
14934;DHT22;7560;51.364;12.384;2022-10-16T05:07:21;15.00;99.90
14934;DHT22;7560;51.364;12.384;2022-10-16T05:12:22;15.00;99.90
14934;DHT22;7560;51.364;12.384;2022-10-16T05:17:25;15.00;99.90
14934;DHT22;7560;51.364;12.384;2022-10-16T05:22:27;15.10;99.90
14934;DHT22;7560;51.364;12.384;2022-10-16T05:27:29;15.10;99.90
14934;DHT22;7560;51.364;12.384;2022-10-16T05:32:30;15.10;99.90
14934;DHT22;7560;51.364;12.384;2022-10-16T05:37:32;15.10;99.90
14934;DHT22;7560;51.364;12.384;2022-10-16T05:42:34;15.10;99.90
14934;DHT22;7560;51.364;12.384;2022-10-16T05:47:35;15.20;99.90
14934;DHT22;7560;51.364;12.384;2022-10-16T05:52:37;15.30;99.90
14934;DHT22;7560;51.364;12.384;2022-10-16T05:57:39;15.40;99.90
14934;DHT22;7560;51.364;12.384;2022-10-16T06:02:41;15.50;99.90
14934;DHT22;7560;51.364;12.384;2022-10-16T06:07:43;15.60;99.90
14934;DHT22;7560;51.364;12.384;2022-10-16T06:12:44;15.60;99.90
14934;DHT22;7560;51.364;12.384;2022-10-16T06:17:46;15.70;99.90
14934;DHT22;7560;51.364;12.384;2022-10-16T06:22:47;15.80;99.90
14934;DHT22;7560;51.364;12.384;2022-10-16T06:27:49;15.90;99.90
14934;DHT22;7560;51.364;12.384;2022-10-16T06:32:51;16.00;99.90
14934;DHT22;7560;51.364;12.384;2022-10-16T06:37:53;16.10;99.90
14934;DHT22;7560;51.364;12.384;2022-10-16T06:42:55;16.10;99.90
14934;DHT22;7560;51.364;12.384;2022-10-16T06:47:57;16.20;99.90
14934;DHT22;7560;51.364;12.384;2022-10-16T06:52:59;16.20;99.90
14934;DHT22;7560;51.364;12.384;2022-10-16T06:58:00;16.30;99.90
14934;DHT22;7560;51.364;12.384;2022-10-16T07:03:02;16.40;99.90
14934;DHT22;7560;51.364;12.384;2022-10-16T07:08:04;16.50;99.90
14934;DHT22;7560;51.364;12.384;2022-10-16T07:13:06;16.50;99.90
14934;DHT22;7560;51.364;12.384;2022-10-16T07:18:09;16.70;99.90
14934;DHT22;7560;51.364;12.384;2022-10-16T07:23:10;16.90;99.90
14934;DHT22;7560;51.364;12.384;2022-10-16T07:28:12;16.80;99.90
14934;DHT22;7560;51.364;12.384;2022-10-16T07:33:14;17.10;99.90
14934;DHT22;7560;51.364;12.384;2022-10-16T07:38:16;17.20;99.90
14934;DHT22;7560;51.364;12.384;2022-10-16T07:43:18;17.20;99.90
14934;DHT22;7560;51.364;12.384;2022-10-16T07:48:19;17.20;99.90
14934;DHT22;7560;51.364;12.384;2022-10-16T07:53:21;17.40;99.90
14934;DHT22;7560;51.364;12.384;2022-10-16T07:58:28;17.50;99.90
14934;DHT22;7560;51.364;12.384;2022-10-16T08:03:29;17.70;99.90
14934;DHT22;7560;51.364;12.384;2022-10-16T08:08:33;18.00;99.90
14934;DHT22;7560;51.364;12.384;2022-10-16T08:13:35;18.20;99.90
14934;DHT22;7560;51.364;12.384;2022-10-16T08:18:38;18.50;99.90
14934;DHT22;7560;51.364;12.384;2022-10-16T08:23:40;18.80;99.90
14934;DHT22;7560;51.364;12.384;2022-10-16T08:28:42;19.10;99.90
14934;DHT22;7560;51.364;12.384;2022-10-16T08:33:44;19.30;99.90
14934;DHT22;7560;51.364;12.384;2022-10-16T08:38:49;19.30;99.90
14934;DHT22;7560;51.364;12.384;2022-10-16T08:44:12;19.40;99.90
14934;DHT22;7560;51.364;12.384;2022-10-16T08:49:19;19.60;99.90
14934;DHT22;7560;51.364;12.384;2022-10-16T08:54:43;20.00;99.90
14934;DHT22;7560;51.364;12.384;2022-10-16T08:59:47;19.70;99.90
14934;DHT22;7560;51.364;12.384;2022-10-16T09:05:05;19.90;99.90
14934;DHT22;7560;51.364;12.384;2022-10-16T09:26:21;20.50;99.90
14934;DHT22;7560;51.364;12.384;2022-10-16T09:31:24;20.30;99.90
14934;DHT22;7560;51.364;12.384;2022-10-16T09:36:27;20.30;99.90
14934;DHT22;7560;51.364;12.384;2022-10-16T09:41:30;20.30;99.90
14934;DHT22;7560;51.364;12.384;2022-10-16T09:46:36;20.40;99.90
14934;DHT22;7560;51.364;12.384;2022-10-16T09:51:39;20.50;99.90
14934;DHT22;7560;51.364;12.384;2022-10-16T09:56:41;20.70;99.90
14934;DHT22;7560;51.364;12.384;2022-10-16T10:01:47;20.70;99.90
14934;DHT22;7560;51.364;12.384;2022-10-16T10:06:54;21.10;99.90
14934;DHT22;7560;51.364;12.384;2022-10-16T10:11:58;20.80;99.90
14934;DHT22;7560;51.364;12.384;2022-10-16T10:33:07;21.80;99.90
14934;DHT22;7560;51.364;12.384;2022-10-16T10:38:41;21.60;99.90
14934;DHT22;7560;51.364;12.384;2022-10-16T11:00:02;20.90;99.90
14934;DHT22;7560;51.364;12.384;2022-10-16T11:15:48;21.00;99.90
14934;DHT22;7560;51.364;12.384;2022-10-16T11:21:08;21.20;99.90
14934;DHT22;7560;51.364;12.384;2022-10-16T11:26:23;21.30;99.90
14934;DHT22;7560;51.364;12.384;2022-10-16T11:31:47;21.20;99.90
14934;DHT22;7560;51.364;12.384;2022-10-16T11:37:12;21.40;99.90
14934;DHT22;7560;51.364;12.384;2022-10-16T11:42:37;21.50;99.90
14934;DHT22;7560;51.364;12.384;2022-10-16T11:58:33;21.40;99.90
14934;DHT22;7560;51.364;12.384;2022-10-16T12:03:47;21.30;99.90
14934;DHT22;7560;51.364;12.384;2022-10-16T12:08:53;21.30;99.90
14934;DHT22;7560;51.364;12.384;2022-10-16T12:14:19;21.10;99.90
14934;DHT22;7560;51.364;12.384;2022-10-16T12:19:22;20.90;99.90
14934;DHT22;7560;51.364;12.384;2022-10-16T12:24:42;20.80;99.90
14934;DHT22;7560;51.364;12.384;2022-10-16T12:29:44;20.40;99.90
14934;DHT22;7560;51.364;12.384;2022-10-16T12:34:47;20.20;99.90
14934;DHT22;7560;51.364;12.384;2022-10-16T12:39:50;20.10;99.90
14934;DHT22;7560;51.364;12.384;2022-10-16T12:44:53;20.10;99.90
14934;DHT22;7560;51.364;12.384;2022-10-16T12:49:55;20.20;99.90
14934;DHT22;7560;51.364;12.384;2022-10-16T12:54:58;20.20;99.90
14934;DHT22;7560;51.364;12.384;2022-10-16T13:15:58;20.70;99.90
14934;DHT22;7560;51.364;12.384;2022-10-16T13:31:43;20.70;99.90
14934;DHT22;7560;51.364;12.384;2022-10-16T13:36:49;20.80;99.90
14934;DHT22;7560;51.364;12.384;2022-10-16T13:42:06;20.90;99.90
14934;DHT22;7560;51.364;12.384;2022-10-16T13:47:24;21.10;99.90
14934;DHT22;7560;51.364;12.384;2022-10-16T13:52:27;21.30;99.90
14934;DHT22;7560;51.364;12.384;2022-10-16T13:57:29;21.50;99.90
14934;DHT22;7560;51.364;12.384;2022-10-16T14:02:36;21.30;99.90
14934;DHT22;7560;51.364;12.384;2022-10-16T14:07:40;21.50;99.90
14934;DHT22;7560;51.364;12.384;2022-10-16T14:12:43;21.80;99.90
14934;DHT22;7560;51.364;12.384;2022-10-16T14:17:48;21.70;99.90
14934;DHT22;7560;51.364;12.384;2022-10-16T14:23:02;21.60;99.90
14934;DHT22;7560;51.364;12.384;2022-10-16T14:33:38;21.10;99.90
14934;DHT22;7560;51.364;12.384;2022-10-16T14:38:42;21.10;99.90
14934;DHT22;7560;51.364;12.384;2022-10-16T14:44:02;21.30;99.90
14934;DHT22;7560;51.364;12.384;2022-10-16T14:54:14;21.10;99.90
14934;DHT22;7560;51.364;12.384;2022-10-16T15:04:20;20.90;99.90
14934;DHT22;7560;51.364;12.384;2022-10-16T15:09:22;20.70;99.90
14934;DHT22;7560;51.364;12.384;2022-10-16T15:14:24;20.50;99.90
14934;DHT22;7560;51.364;12.384;2022-10-16T15:19:25;20.70;99.90
14934;DHT22;7560;51.364;12.384;2022-10-16T15:24:27;20.60;99.90
14934;DHT22;7560;51.364;12.384;2022-10-16T15:29:29;20.30;99.90
14934;DHT22;7560;51.364;12.384;2022-10-16T15:34:30;20.00;99.90
14934;DHT22;7560;51.364;12.384;2022-10-16T15:39:32;19.70;99.90
14934;DHT22;7560;51.364;12.384;2022-10-16T15:44:40;19.80;99.90
14934;DHT22;7560;51.364;12.384;2022-10-16T15:49:42;19.90;99.90
14934;DHT22;7560;51.364;12.384;2022-10-16T15:54:44;19.90;99.90
14934;DHT22;7560;51.364;12.384;2022-10-16T15:59:50;19.90;99.90
14934;DHT22;7560;51.364;12.384;2022-10-16T16:04:52;19.90;99.90
14934;DHT22;7560;51.364;12.384;2022-10-16T16:09:54;19.80;99.90
14934;DHT22;7560;51.364;12.384;2022-10-16T16:14:56;19.50;99.90
14934;DHT22;7560;51.364;12.384;2022-10-16T16:20:04;19.20;99.90
14934;DHT22;7560;51.364;12.384;2022-10-16T16:25:06;18.90;99.90
14934;DHT22;7560;51.364;12.384;2022-10-16T16:30:10;18.70;99.90
14934;DHT22;7560;51.364;12.384;2022-10-16T16:35:20;18.60;99.90
14934;DHT22;7560;51.364;12.384;2022-10-16T16:40:21;18.40;99.90
14934;DHT22;7560;51.364;12.384;2022-10-16T16:45:23;18.30;99.90
14934;DHT22;7560;51.364;12.384;2022-10-16T16:50:30;18.40;99.90
14934;DHT22;7560;51.364;12.384;2022-10-16T16:55:36;18.30;99.90
14934;DHT22;7560;51.364;12.384;2022-10-16T17:00:45;18.30;99.90
14934;DHT22;7560;51.364;12.384;2022-10-16T17:06:06;18.30;99.90
14934;DHT22;7560;51.364;12.384;2022-10-16T17:11:14;18.30;99.90
14934;DHT22;7560;51.364;12.384;2022-10-16T17:16:18;18.40;99.90
14934;DHT22;7560;51.364;12.384;2022-10-16T17:21:20;18.40;99.90
14934;DHT22;7560;51.364;12.384;2022-10-16T17:26:22;18.40;99.90
14934;DHT22;7560;51.364;12.384;2022-10-16T17:31:30;18.50;99.90
14934;DHT22;7560;51.364;12.384;2022-10-16T17:36:34;18.40;99.90
14934;DHT22;7560;51.364;12.384;2022-10-16T17:41:36;18.30;99.90
14934;DHT22;7560;51.364;12.384;2022-10-16T17:46:38;18.30;99.90
14934;DHT22;7560;51.364;12.384;2022-10-16T17:51:42;18.20;99.90
14934;DHT22;7560;51.364;12.384;2022-10-16T17:56:44;18.20;99.90
14934;DHT22;7560;51.364;12.384;2022-10-16T18:01:48;18.00;99.90
14934;DHT22;7560;51.364;12.384;2022-10-16T18:06:49;17.80;99.90
14934;DHT22;7560;51.364;12.384;2022-10-16T18:11:51;17.80;99.90
14934;DHT22;7560;51.364;12.384;2022-10-16T18:17:00;17.70;99.90
14934;DHT22;7560;51.364;12.384;2022-10-16T18:22:02;17.70;99.90
14934;DHT22;7560;51.364;12.384;2022-10-16T18:27:03;17.70;99.90
14934;DHT22;7560;51.364;12.384;2022-10-16T18:32:05;17.70;99.90
14934;DHT22;7560;51.364;12.384;2022-10-16T18:37:06;17.80;99.90
14934;DHT22;7560;51.364;12.384;2022-10-16T18:42:08;17.80;99.90
14934;DHT22;7560;51.364;12.384;2022-10-16T18:47:10;17.70;99.90
14934;DHT22;7560;51.364;12.384;2022-10-16T18:52:12;17.80;99.90
14934;DHT22;7560;51.364;12.384;2022-10-16T18:57:14;17.70;99.90
14934;DHT22;7560;51.364;12.384;2022-10-16T19:02:15;17.70;99.90
14934;DHT22;7560;51.364;12.384;2022-10-16T19:07:17;17.70;99.90
14934;DHT22;7560;51.364;12.384;2022-10-16T19:12:18;17.70;99.90
14934;DHT22;7560;51.364;12.384;2022-10-16T19:17:20;17.70;99.90
14934;DHT22;7560;51.364;12.384;2022-10-16T19:22:22;17.60;99.90
14934;DHT22;7560;51.364;12.384;2022-10-16T19:27:50;17.60;99.90
14934;DHT22;7560;51.364;12.384;2022-10-16T19:32:52;17.60;99.90
14934;DHT22;7560;51.364;12.384;2022-10-16T19:37:54;17.60;99.90
14934;DHT22;7560;51.364;12.384;2022-10-16T19:42:56;17.60;99.90
14934;DHT22;7560;51.364;12.384;2022-10-16T19:47:57;17.50;99.90
14934;DHT22;7560;51.364;12.384;2022-10-16T19:52:59;17.50;99.90
14934;DHT22;7560;51.364;12.384;2022-10-16T19:58:00;17.50;99.90
14934;DHT22;7560;51.364;12.384;2022-10-16T20:03:02;17.50;99.90
14934;DHT22;7560;51.364;12.384;2022-10-16T20:08:04;17.50;99.90
14934;DHT22;7560;51.364;12.384;2022-10-16T20:13:06;17.40;99.90
14934;DHT22;7560;51.364;12.384;2022-10-16T20:18:08;17.40;99.90
14934;DHT22;7560;51.364;12.384;2022-10-16T20:23:10;17.30;99.90
14934;DHT22;7560;51.364;12.384;2022-10-16T20:28:16;17.20;99.90
14934;DHT22;7560;51.364;12.384;2022-10-16T20:33:18;17.20;99.90
14934;DHT22;7560;51.364;12.384;2022-10-16T20:38:21;17.10;99.90
14934;DHT22;7560;51.364;12.384;2022-10-16T20:43:22;17.10;99.90
14934;DHT22;7560;51.364;12.384;2022-10-16T20:48:24;17.10;99.90
14934;DHT22;7560;51.364;12.384;2022-10-16T20:53:26;17.00;99.90
14934;DHT22;7560;51.364;12.384;2022-10-16T20:58:28;17.00;99.90
14934;DHT22;7560;51.364;12.384;2022-10-16T21:03:30;16.90;99.90
14934;DHT22;7560;51.364;12.384;2022-10-16T21:08:38;16.90;99.90
14934;DHT22;7560;51.364;12.384;2022-10-16T21:13:40;16.90;99.90
14934;DHT22;7560;51.364;12.384;2022-10-16T21:18:42;16.90;99.90
14934;DHT22;7560;51.364;12.384;2022-10-16T21:23:45;16.90;99.90
14934;DHT22;7560;51.364;12.384;2022-10-16T21:28:47;17.00;99.90
14934;DHT22;7560;51.364;12.384;2022-10-16T21:33:50;17.00;99.90
14934;DHT22;7560;51.364;12.384;2022-10-16T21:38:52;17.00;99.90
14934;DHT22;7560;51.364;12.384;2022-10-16T21:43:55;17.00;99.90
14934;DHT22;7560;51.364;12.384;2022-10-16T21:49:02;17.00;99.90
14934;DHT22;7560;51.364;12.384;2022-10-16T21:54:07;17.00;99.90
14934;DHT22;7560;51.364;12.384;2022-10-16T21:59:13;17.00;99.90
14934;DHT22;7560;51.364;12.384;2022-10-16T22:04:15;16.90;99.90
14934;DHT22;7560;51.364;12.384;2022-10-16T22:09:17;16.90;99.90
14934;DHT22;7560;51.364;12.384;2022-10-16T22:14:20;16.90;99.90
14934;DHT22;7560;51.364;12.384;2022-10-16T22:19:22;16.80;99.90
14934;DHT22;7560;51.364;12.384;2022-10-16T22:24:24;16.80;99.90
14934;DHT22;7560;51.364;12.384;2022-10-16T22:29:26;16.80;99.90
14934;DHT22;7560;51.364;12.384;2022-10-16T22:34:27;16.80;99.90
14934;DHT22;7560;51.364;12.384;2022-10-16T22:39:30;16.80;99.90
14934;DHT22;7560;51.364;12.384;2022-10-16T22:44:31;16.70;99.90
14934;DHT22;7560;51.364;12.384;2022-10-16T22:49:33;16.70;99.90
14934;DHT22;7560;51.364;12.384;2022-10-16T22:54:34;16.50;99.90
14934;DHT22;7560;51.364;12.384;2022-10-16T22:59:36;16.40;99.90
14934;DHT22;7560;51.364;12.384;2022-10-16T23:04:38;16.20;99.90
14934;DHT22;7560;51.364;12.384;2022-10-16T23:09:39;16.10;99.90
14934;DHT22;7560;51.364;12.384;2022-10-16T23:14:41;16.00;99.90
14934;DHT22;7560;51.364;12.384;2022-10-16T23:19:43;15.90;99.90
14934;DHT22;7560;51.364;12.384;2022-10-16T23:24:44;15.90;99.90
14934;DHT22;7560;51.364;12.384;2022-10-16T23:29:46;15.80;99.90
14934;DHT22;7560;51.364;12.384;2022-10-16T23:34:48;15.70;99.90
14934;DHT22;7560;51.364;12.384;2022-10-16T23:39:50;15.60;99.90
14934;DHT22;7560;51.364;12.384;2022-10-16T23:44:52;15.60;99.90
14934;DHT22;7560;51.364;12.384;2022-10-16T23:49:53;15.50;99.90
14934;DHT22;7560;51.364;12.384;2022-10-16T23:54:55;15.40;99.90
14934;DHT22;7560;51.364;12.384;2022-10-16T23:59:57;15.40;99.90
